createdAt,value
2023-12-08T00:02:42.977Z,4.85
2023-12-08T00:05:28.277Z,4.90
2023-12-08T00:08:13.272Z,4.72
2023-12-08T00:10:59.399Z,4.58
2023-12-08T00:13:44.687Z,4.58
2023-12-08T00:16:29.731Z,4.58
2023-12-08T00:19:14.954Z,4.57
2023-12-08T00:21:59.869Z,4.40
2023-12-08T00:24:45.178Z,4.50
2023-12-08T00:27:30.075Z,4.50
2023-12-08T00:30:15.423Z,4.49
2023-12-08T00:33:01.646Z,4.40
2023-12-08T00:35:46.648Z,4.25
2023-12-08T00:38:31.888Z,4.22
2023-12-08T00:41:16.960Z,4.16
2023-12-08T00:44:02.080Z,4.17
2023-12-08T00:46:47.107Z,4.33
2023-12-08T00:49:32.377Z,4.41
2023-12-08T00:52:17.449Z,4.43
2023-12-08T00:55:02.462Z,4.38
2023-12-08T00:57:49.744Z,4.40
2023-12-08T01:00:34.680Z,4.43
2023-12-08T01:03:19.765Z,4.39
2023-12-08T01:06:04.915Z,4.33
2023-12-08T01:08:49.858Z,4.48
2023-12-08T01:11:35.064Z,4.60
2023-12-08T01:14:20.024Z,4.72
2023-12-08T01:17:05.134Z,4.69
2023-12-08T01:19:50.179Z,4.59
2023-12-08T01:22:35.744Z,4.66
2023-12-08T01:25:20.765Z,4.70
2023-12-08T01:28:05.856Z,4.73
2023-12-08T01:30:51.018Z,4.71
2023-12-08T01:33:36.113Z,4.59
2023-12-08T01:36:39.627Z,4.48
2023-12-08T01:39:26.329Z,4.42
2023-12-08T01:42:11.478Z,4.34
2023-12-08T01:44:56.655Z,4.40
2023-12-08T01:47:41.699Z,4.42
2023-12-08T01:50:26.793Z,4.39
2023-12-08T01:53:12.009Z,4.36
2023-12-08T01:55:57.157Z,4.32
2023-12-08T01:58:42.276Z,4.34
2023-12-08T02:01:27.418Z,4.25
2023-12-08T02:04:12.533Z,4.32
2023-12-08T02:06:57.541Z,4.36
2023-12-08T02:09:42.878Z,4.47
2023-12-08T02:12:27.985Z,4.53
2023-12-08T02:15:13.198Z,4.54
2023-12-08T02:18:01.093Z,4.49
2023-12-08T02:20:46.115Z,4.57
2023-12-08T02:23:31.174Z,4.63
2023-12-08T02:26:16.163Z,4.68
2023-12-08T02:29:01.224Z,4.77
2023-12-08T02:31:46.385Z,4.77
2023-12-08T02:34:31.625Z,4.77
2023-12-08T02:37:16.759Z,4.66
2023-12-08T02:40:01.877Z,4.61
2023-12-08T02:42:46.974Z,4.64
2023-12-08T02:45:32.151Z,4.66
2023-12-08T02:48:17.427Z,4.67
2023-12-08T02:51:02.398Z,4.72
2023-12-08T02:53:47.464Z,4.78
2023-12-08T02:56:32.495Z,4.87
2023-12-08T02:59:17.512Z,4.78
2023-12-08T03:02:02.713Z,4.69
2023-12-08T03:04:47.827Z,4.58
2023-12-08T03:07:32.879Z,4.59
2023-12-08T03:10:17.993Z,4.63
2023-12-08T03:13:02.986Z,4.59
2023-12-08T03:15:48.058Z,4.65
2023-12-08T03:18:33.375Z,4.59
2023-12-08T03:21:18.238Z,4.60
2023-12-08T03:24:03.322Z,4.60
2023-12-08T03:26:48.599Z,4.54
2023-12-08T03:29:33.600Z,4.72
2023-12-08T03:32:18.667Z,4.78
2023-12-08T03:35:03.811Z,4.83
2023-12-08T03:37:49.321Z,4.92
2023-12-08T03:40:34.446Z,4.91
2023-12-08T03:43:19.609Z,4.92
2023-12-08T03:46:04.638Z,4.93
2023-12-08T03:48:51.855Z,5.05
2023-12-08T03:51:38.137Z,5.04
2023-12-08T03:54:23.390Z,5.10
2023-12-08T03:57:08.552Z,5.14
2023-12-08T03:59:53.664Z,5.14
2023-12-08T04:02:38.838Z,5.08
2023-12-08T04:05:23.868Z,4.94
2023-12-08T04:08:09.149Z,4.83
2023-12-08T04:10:54.124Z,4.79
2023-12-08T04:13:39.155Z,4.89
2023-12-08T04:16:24.132Z,4.97
2023-12-08T04:19:09.278Z,5.01
2023-12-08T04:21:54.149Z,5.02
2023-12-08T04:24:39.076Z,5.05
2023-12-08T04:27:24.743Z,5.10
2023-12-08T04:30:09.938Z,5.14
2023-12-08T04:32:55.185Z,5.17
2023-12-08T04:35:40.024Z,5.18
2023-12-08T04:38:25.247Z,5.15
2023-12-08T04:41:10.256Z,5.17
2023-12-08T04:43:55.295Z,5.15
2023-12-08T04:46:40.515Z,5.02
2023-12-08T04:49:25.598Z,4.97
2023-12-08T04:52:10.654Z,4.95
2023-12-08T04:54:55.630Z,4.95
2023-12-08T04:57:40.788Z,4.84
2023-12-08T05:00:25.901Z,4.80
2023-12-08T05:03:11.602Z,4.73
2023-12-08T05:05:56.571Z,4.67
2023-12-08T05:08:41.659Z,4.57
2023-12-08T05:11:26.844Z,4.44
2023-12-08T05:14:11.856Z,4.37
2023-12-08T05:16:57.143Z,4.31
2023-12-08T05:19:42.250Z,4.22
2023-12-08T05:22:27.320Z,4.23
2023-12-08T05:25:12.553Z,4.23
2023-12-08T05:27:57.677Z,4.18
2023-12-08T05:30:42.918Z,4.10
2023-12-08T05:33:28.048Z,3.97
2023-12-08T05:36:13.138Z,3.93
2023-12-08T05:38:58.123Z,3.91
2023-12-08T05:41:43.130Z,3.88
2023-12-08T05:44:28.209Z,3.83
2023-12-08T05:47:13.261Z,3.71
2023-12-08T05:49:58.557Z,3.67
2023-12-08T05:52:43.557Z,3.62
2023-12-08T05:55:28.706Z,3.68
2023-12-08T05:58:13.753Z,3.67
2023-12-08T06:00:58.898Z,3.61
2023-12-08T06:03:44.028Z,3.72
2023-12-08T06:06:29.544Z,3.76
2023-12-08T06:09:14.836Z,3.76
2023-12-08T06:11:59.824Z,3.72
2023-12-08T06:14:45.019Z,3.67
2023-12-08T06:17:30.337Z,3.65
2023-12-08T06:20:15.184Z,3.65
2023-12-08T06:23:00.314Z,3.55
2023-12-08T06:25:45.228Z,3.60
2023-12-08T06:28:30.539Z,3.52
2023-12-08T06:31:15.537Z,3.51
2023-12-08T06:34:09.573Z,3.40
2023-12-08T06:37:00.745Z,3.33
2023-12-08T06:39:45.881Z,3.30
2023-12-08T06:42:30.875Z,3.35
2023-12-08T06:45:16.011Z,3.40
2023-12-08T06:48:01.186Z,3.44
2023-12-08T06:50:47.235Z,3.40
2023-12-08T06:53:32.326Z,3.39
2023-12-08T06:56:17.244Z,3.34
2023-12-08T06:59:02.434Z,3.28
2023-12-08T07:01:47.326Z,3.26
2023-12-08T07:04:32.379Z,3.26
2023-12-08T07:07:17.450Z,3.35
2023-12-08T07:10:02.462Z,3.30
2023-12-08T07:12:47.714Z,3.23
2023-12-08T07:15:35.903Z,3.25
2023-12-08T07:18:20.944Z,3.21
2023-12-08T07:21:06.276Z,3.22
2023-12-08T07:23:51.497Z,3.27
2023-12-08T07:26:36.676Z,3.29
2023-12-08T07:29:21.743Z,3.24
2023-12-08T07:32:07.017Z,3.33
2023-12-08T07:34:52.162Z,3.39
2023-12-08T07:37:37.148Z,3.31
2023-12-08T07:40:22.199Z,3.24
2023-12-08T07:43:07.322Z,3.29
2023-12-08T07:45:52.534Z,3.21
2023-12-08T07:48:37.828Z,3.11
2023-12-08T07:51:22.822Z,3.05
2023-12-08T07:54:07.833Z,3.02
2023-12-08T07:56:53.099Z,3.00
2023-12-08T07:59:38.339Z,2.95
2023-12-08T08:02:23.619Z,3.00
2023-12-08T08:05:09.126Z,2.96
2023-12-08T08:07:54.174Z,2.93
2023-12-08T08:10:39.321Z,3.05
2023-12-08T08:13:24.505Z,3.19
2023-12-08T08:16:09.616Z,3.33
2023-12-08T08:18:54.892Z,3.40
2023-12-08T08:21:39.748Z,3.42
2023-12-08T08:24:25.016Z,3.35
2023-12-08T08:27:10.054Z,3.37
2023-12-08T08:29:55.098Z,3.50
2023-12-08T08:32:40.013Z,3.67
2023-12-08T08:35:25.166Z,3.76
2023-12-08T08:38:10.319Z,3.91
2023-12-08T08:40:55.384Z,4.07
2023-12-08T08:43:40.652Z,4.22
2023-12-08T08:46:25.616Z,4.33
2023-12-08T08:49:11.956Z,4.42
2023-12-08T08:51:57.113Z,4.52
2023-12-08T08:54:42.092Z,4.52
2023-12-08T08:57:27.603Z,4.47
2023-12-08T09:00:12.430Z,4.52
2023-12-08T09:02:57.572Z,4.59
2023-12-08T09:05:42.996Z,4.69
2023-12-08T09:08:28.675Z,4.78
2023-12-08T09:11:13.834Z,4.86
2023-12-08T09:13:58.904Z,4.84
2023-12-08T09:16:44.135Z,4.73
2023-12-08T09:19:29.206Z,4.75
2023-12-08T09:22:14.253Z,4.77
2023-12-08T09:24:59.257Z,4.66
2023-12-08T09:27:44.302Z,4.50
2023-12-08T09:30:29.500Z,4.32
2023-12-08T09:33:14.618Z,4.04
2023-12-08T09:35:59.795Z,3.92
2023-12-08T09:38:44.881Z,3.85
2023-12-08T09:41:29.972Z,3.96
2023-12-08T09:44:16.837Z,4.03
2023-12-08T09:47:01.792Z,4.14
2023-12-08T09:49:46.990Z,4.13
2023-12-08T09:52:31.962Z,4.23
2023-12-08T09:55:17.192Z,4.13
2023-12-08T09:58:02.440Z,4.15
2023-12-08T10:00:47.310Z,4.33
2023-12-08T10:03:32.431Z,4.56
2023-12-08T10:06:17.570Z,4.74
2023-12-08T10:09:04.705Z,4.88
2023-12-08T10:11:49.593Z,5.01
2023-12-08T10:14:34.702Z,5.05
2023-12-08T10:17:19.738Z,5.05
2023-12-08T10:20:04.918Z,5.04
2023-12-08T10:22:49.914Z,5.02
2023-12-08T10:25:35.088Z,5.04
2023-12-08T10:28:20.286Z,5.18
2023-12-08T10:31:05.439Z,5.34
2023-12-08T10:33:50.664Z,5.37
2023-12-08T10:36:35.626Z,5.27
2023-12-08T10:39:20.867Z,5.35
2023-12-08T10:42:05.810Z,5.35
2023-12-08T10:44:50.981Z,5.20
2023-12-08T10:47:36.135Z,5.03
2023-12-08T10:50:21.157Z,4.93
2023-12-08T10:53:06.237Z,4.86
2023-12-08T10:55:51.241Z,5.00
2023-12-08T10:58:36.396Z,5.18
2023-12-08T11:01:23.626Z,5.41
2023-12-08T11:04:08.555Z,5.45
2023-12-08T11:06:53.679Z,5.46
2023-12-08T11:09:38.814Z,5.44
2023-12-08T11:12:24.007Z,5.49
2023-12-08T11:15:09.014Z,5.58
2023-12-08T11:17:54.076Z,5.66
2023-12-08T11:20:39.103Z,5.67
2023-12-08T11:23:24.231Z,5.68
2023-12-08T11:26:09.310Z,5.79
2023-12-08T11:28:54.284Z,5.84
2023-12-08T11:31:39.384Z,5.74
2023-12-08T11:34:24.532Z,5.72
2023-12-08T11:37:09.442Z,5.85
2023-12-08T11:39:54.482Z,5.94
2023-12-08T11:42:39.646Z,6.04
2023-12-08T11:45:24.968Z,6.13
2023-12-08T11:48:10.078Z,6.23
2023-12-08T11:50:55.132Z,6.24
2023-12-08T11:53:39.806Z,6.22
2023-12-08T11:56:24.737Z,5.98
2023-12-08T11:59:09.781Z,5.75
2023-12-08T12:01:55.027Z,5.72
2023-12-08T12:04:40.045Z,5.63
2023-12-08T12:07:25.245Z,5.69
2023-12-08T12:10:10.469Z,5.77
2023-12-08T12:12:55.490Z,5.69
2023-12-08T12:15:40.404Z,5.68
2023-12-08T12:18:25.603Z,5.62
2023-12-08T12:21:10.680Z,5.69
2023-12-08T12:23:55.660Z,5.77
2023-12-08T12:26:40.699Z,5.82
2023-12-08T12:29:25.767Z,5.81
2023-12-08T12:32:10.814Z,5.78
2023-12-08T12:34:56.078Z,5.83
2023-12-08T12:37:40.996Z,5.87
2023-12-08T12:40:26.175Z,5.91
2023-12-08T12:43:11.154Z,5.86
2023-12-08T12:45:56.283Z,5.80
2023-12-08T12:48:41.568Z,5.77
2023-12-08T12:51:26.526Z,5.75
2023-12-08T12:54:11.656Z,5.67
2023-12-08T12:56:56.647Z,5.64
2023-12-08T12:59:41.898Z,5.58
2023-12-08T13:02:26.920Z,5.45
2023-12-08T13:05:12.200Z,5.23
2023-12-08T13:07:57.265Z,5.31
2023-12-08T13:10:42.465Z,5.14
2023-12-08T13:13:27.562Z,5.07
2023-12-08T13:16:12.800Z,4.92
2023-12-08T13:18:58.349Z,4.87
2023-12-08T13:21:43.305Z,4.70
2023-12-08T13:24:28.493Z,4.39
2023-12-08T13:27:13.518Z,4.25
2023-12-08T13:29:58.681Z,4.11
2023-12-08T13:32:43.884Z,4.08
2023-12-08T13:35:28.933Z,4.07
2023-12-08T13:38:14.047Z,4.20
2023-12-08T13:40:59.106Z,4.24
2023-12-08T13:43:44.119Z,4.39
2023-12-08T13:46:29.113Z,4.61
2023-12-08T13:49:14.175Z,4.77
2023-12-08T13:51:59.387Z,4.89
2023-12-08T13:54:44.405Z,4.98
2023-12-08T13:57:29.945Z,4.94
2023-12-08T14:00:15.214Z,4.83
2023-12-08T14:03:00.357Z,4.78
2023-12-08T14:05:45.286Z,4.81
2023-12-08T14:08:30.369Z,4.85
2023-12-08T14:11:15.528Z,4.90
2023-12-08T14:14:00.649Z,4.95
2023-12-08T14:16:45.730Z,5.01
2023-12-08T14:19:30.846Z,4.94
2023-12-08T14:22:15.847Z,4.93
2023-12-08T14:25:00.743Z,4.97
2023-12-08T14:27:45.901Z,4.97
2023-12-08T14:30:31.107Z,4.81
2023-12-08T14:33:16.129Z,4.83
2023-12-08T14:36:02.125Z,4.75
2023-12-08T14:38:47.764Z,4.67
2023-12-08T14:41:32.770Z,4.63
2023-12-08T14:44:17.779Z,4.46
2023-12-08T14:47:02.853Z,4.31
2023-12-08T14:49:50.201Z,4.25
2023-12-08T14:52:35.158Z,4.29
2023-12-08T14:55:20.250Z,4.25
2023-12-08T14:58:05.213Z,4.35
2023-12-08T15:00:50.295Z,4.41
2023-12-08T15:03:35.650Z,4.47
2023-12-08T15:06:20.459Z,4.44
2023-12-08T15:09:05.584Z,4.37
2023-12-08T15:11:50.540Z,4.44
2023-12-08T15:14:35.670Z,4.50
2023-12-08T15:17:20.637Z,4.54
2023-12-08T15:20:05.703Z,4.50
2023-12-08T15:22:50.653Z,4.47
2023-12-08T15:25:35.681Z,4.36
2023-12-08T15:28:20.873Z,4.30
2023-12-08T15:31:05.779Z,4.20
2023-12-08T15:33:51.094Z,4.19
2023-12-08T15:36:35.970Z,4.20
2023-12-08T15:39:21.256Z,4.21
2023-12-08T15:42:06.069Z,4.15
2023-12-08T15:44:51.181Z,4.12
2023-12-08T15:47:36.545Z,4.08
2023-12-08T15:50:21.520Z,4.00
2023-12-08T15:53:06.602Z,3.98
2023-12-08T15:55:51.665Z,4.07
2023-12-08T15:58:36.864Z,4.05
2023-12-08T16:01:22.050Z,4.00
2023-12-08T16:04:07.130Z,4.00
2023-12-08T16:06:52.419Z,3.92
2023-12-08T16:09:37.441Z,3.94
2023-12-08T16:12:22.748Z,3.94
2023-12-08T16:15:07.608Z,3.83
2023-12-08T16:17:53.298Z,3.77
2023-12-08T16:20:38.295Z,3.80
2023-12-08T16:23:23.275Z,3.78
2023-12-08T16:26:08.563Z,3.67
2023-12-08T16:28:53.562Z,3.64
2023-12-08T16:31:38.810Z,3.62
2023-12-08T16:34:23.820Z,3.54
2023-12-08T16:37:08.967Z,3.53
2023-12-08T16:39:54.120Z,3.60
2023-12-08T16:42:39.058Z,3.59
2023-12-08T16:45:24.167Z,3.61
2023-12-08T16:48:09.143Z,3.61
2023-12-08T16:50:54.327Z,3.63
2023-12-08T16:53:39.042Z,3.65
2023-12-08T16:56:26.068Z,3.71
2023-12-08T16:59:12.435Z,3.75
2023-12-08T17:01:57.455Z,3.78
2023-12-08T17:04:42.614Z,3.88
2023-12-08T17:07:27.628Z,3.91
2023-12-08T17:10:12.683Z,4.01
2023-12-08T17:12:57.656Z,4.06
2023-12-08T17:15:42.774Z,4.08
2023-12-08T17:18:27.912Z,4.06
2023-12-08T17:21:13.051Z,3.99
2023-12-08T17:23:58.012Z,3.98
2023-12-08T17:26:45.092Z,3.96
2023-12-08T17:29:31.321Z,3.96
2023-12-08T17:32:16.442Z,3.97
2023-12-08T17:35:01.516Z,3.98
2023-12-08T17:37:46.421Z,3.97
2023-12-08T17:40:31.359Z,4.08
2023-12-08T17:43:16.416Z,4.09
2023-12-08T17:46:01.366Z,4.03
2023-12-08T17:48:46.486Z,3.98
2023-12-08T17:51:31.494Z,3.91
2023-12-08T17:54:16.666Z,3.88
2023-12-08T17:57:01.727Z,3.77
2023-12-08T17:59:46.775Z,3.81
2023-12-08T18:02:31.887Z,3.83
2023-12-08T18:05:16.866Z,3.78
2023-12-08T18:08:02.182Z,3.69
2023-12-08T18:10:47.201Z,3.63
2023-12-08T18:13:32.258Z,3.59
2023-12-08T18:16:17.320Z,3.55
2023-12-08T18:19:02.659Z,3.70
2023-12-08T18:21:47.628Z,3.77
2023-12-08T18:24:32.515Z,3.83
2023-12-08T18:27:23.832Z,3.94
2023-12-08T18:30:19.564Z,4.06
2023-12-08T18:33:04.913Z,4.12
2023-12-08T18:35:50.070Z,4.10
2023-12-08T18:38:35.142Z,4.03
2023-12-08T18:41:20.237Z,4.00
2023-12-08T18:44:05.426Z,3.94
2023-12-08T18:46:50.321Z,3.86
2023-12-08T18:49:35.364Z,3.74
2023-12-08T18:52:20.408Z,3.67
2023-12-08T18:55:05.539Z,3.63
2023-12-08T18:57:50.597Z,3.51
2023-12-08T19:00:36.041Z,3.47
2023-12-08T19:03:20.964Z,3.46
2023-12-08T19:06:06.084Z,3.44
2023-12-08T19:08:51.231Z,3.52
2023-12-08T19:11:36.201Z,3.49
2023-12-08T19:14:21.189Z,3.46
2023-12-08T19:17:06.271Z,3.43
2023-12-08T19:19:51.529Z,3.42
2023-12-08T19:22:36.576Z,3.39
2023-12-08T19:25:21.725Z,3.38
2023-12-08T19:28:06.763Z,3.37
2023-12-08T19:30:51.951Z,3.41
2023-12-08T19:33:37.209Z,3.41
2023-12-08T19:36:22.091Z,3.50
2023-12-08T19:39:07.312Z,3.59
2023-12-08T19:41:52.380Z,3.62
2023-12-08T19:44:37.519Z,3.61
2023-12-08T19:47:22.801Z,3.55
2023-12-08T19:50:07.680Z,3.54
2023-12-08T19:52:52.760Z,3.57
2023-12-08T19:55:37.917Z,3.65
2023-12-08T19:58:23.108Z,3.71
2023-12-08T20:01:08.234Z,3.77
2023-12-08T20:03:53.562Z,3.80
2023-12-08T20:06:38.678Z,3.85
2023-12-08T20:09:24.004Z,3.84
2023-12-08T20:12:08.925Z,3.90
2023-12-08T20:14:54.121Z,3.92
2023-12-08T20:17:39.090Z,3.90
2023-12-08T20:20:23.987Z,3.92
2023-12-08T20:23:09.114Z,3.89
2023-12-08T20:25:54.186Z,3.74
2023-12-08T20:28:39.318Z,3.70
2023-12-08T20:31:24.382Z,3.59
2023-12-08T20:34:09.791Z,3.48
2023-12-08T20:36:54.696Z,3.47
2023-12-08T20:39:39.800Z,3.50
2023-12-08T20:42:27.856Z,3.46
2023-12-08T20:45:13.512Z,3.42
2023-12-08T20:47:58.754Z,3.47
2023-12-08T20:50:43.793Z,3.58
2023-12-08T20:53:28.833Z,3.69
2023-12-08T20:56:13.917Z,3.70
2023-12-08T20:58:59.029Z,3.70
2023-12-08T21:01:44.165Z,3.70
2023-12-08T21:04:29.184Z,3.69
2023-12-08T21:07:14.343Z,3.70
2023-12-08T21:09:59.411Z,3.78
2023-12-08T21:12:44.497Z,3.86
2023-12-08T21:15:29.786Z,3.91
2023-12-08T21:18:14.774Z,3.91
2023-12-08T21:20:59.913Z,3.92
2023-12-08T21:23:44.867Z,3.97
2023-12-08T21:26:30.013Z,4.01
2023-12-08T21:29:15.019Z,4.08
2023-12-08T21:32:00.217Z,4.14
2023-12-08T21:34:45.488Z,4.20
2023-12-08T21:37:30.525Z,4.25
2023-12-08T21:40:15.728Z,4.27
2023-12-08T21:43:00.859Z,4.25
2023-12-08T21:45:46.082Z,4.23
2023-12-08T21:48:31.364Z,4.15
2023-12-08T21:51:16.291Z,4.02
2023-12-08T21:54:01.451Z,3.94
2023-12-08T21:56:46.342Z,3.83
2023-12-08T21:59:31.461Z,3.80
2023-12-08T22:02:16.630Z,3.77
2023-12-08T22:05:01.886Z,3.71
2023-12-08T22:07:46.795Z,3.63
2023-12-08T22:10:32.033Z,3.63
2023-12-08T22:13:17.092Z,3.73
2023-12-08T22:16:02.142Z,3.76
2023-12-08T22:18:47.307Z,3.79
2023-12-08T22:21:32.205Z,3.84
2023-12-08T22:24:17.419Z,3.89
2023-12-08T22:27:02.491Z,3.89
2023-12-08T22:29:47.616Z,3.83
2023-12-08T22:32:32.796Z,3.71
2023-12-08T22:35:17.661Z,3.63
2023-12-08T22:38:02.992Z,3.51
2023-12-08T22:40:47.901Z,3.47
2023-12-08T22:43:34.874Z,3.45
2023-12-08T22:46:19.897Z,3.47
2023-12-08T22:49:05.275Z,3.47
2023-12-08T22:51:58.301Z,3.45
2023-12-08T22:54:44.314Z,3.39
2023-12-08T22:57:29.467Z,3.29
2023-12-08T23:00:14.465Z,3.25
2023-12-08T23:02:59.518Z,3.26
2023-12-08T23:05:44.465Z,3.11
2023-12-08T23:08:29.473Z,3.01
2023-12-08T23:11:14.431Z,2.85
2023-12-08T23:13:59.622Z,2.83
2023-12-08T23:16:44.603Z,2.95
2023-12-08T23:19:29.866Z,3.04
2023-12-08T23:22:15.144Z,3.17
2023-12-08T23:25:00.152Z,3.31
2023-12-08T23:27:45.244Z,3.36
2023-12-08T23:30:30.322Z,3.46
2023-12-08T23:33:15.736Z,3.54
2023-12-08T23:36:00.622Z,3.70
2023-12-08T23:38:45.759Z,3.78
2023-12-08T23:41:30.925Z,3.84
2023-12-08T23:44:16.102Z,3.86
2023-12-08T23:47:01.349Z,3.79
2023-12-08T23:49:46.519Z,3.63
2023-12-08T23:52:31.734Z,3.60
2023-12-08T23:55:16.786Z,3.53
2023-12-08T23:58:01.965Z,3.46
